Archival Weather

Chicago O'Hare International

Chicago, Illinois (KORD)

Report from: Saturday, March 5, 2022 11:42 PM CST
Current time: Saturday, February 4, 2023 11:25 PM CST

Current weather
Weather history
Weather forecast

Present weatherThunderstorm with rain, mist
Temperature12.2°C (54.0°F)
Dew point10.0°C (50.0°F)
Winds 10 kts (5.1 m/s, 11.5 mph) Southwest (230°)
Wind gusts 25 kts (12.9 m/s, 28.8 mph)
Peak wind 57 kts (29.3 m/s, 65.6 mph) West (280°) at 23:13
Visibility4 mi. (6.4 km)
Clouds Scattered clouds 2,400 ft. (732 m)
Ceiling: Broken clouds with cumulonimbus 2,900 ft. (884 m)
Overcast 5,000 ft. (1,524 m)
Altimeter29.68 in.Hg (1005 mB)
Precipitiation0.09 in. (2 mm)
Precip. events Rain began 11:14 PM
Thunderstorm began 11:05 PM
Relative humidity86 %
Density altitude118 ft. (36 m)
Remarks System requires maintenance
Automated weather observing station with precipitation discriminator
Lightning observed
Lightning observed: intra cloud, cloud to ground
Distant frequent northeast south thunderstorm northeast south moving east
Flight conditions Marginal Visual Meteorological Conditions
Raw dataKORD 060542Z 23010G25KT 4SM TSRA BR SCT024 BKN029CB OVC050 12/10 A2968 RMK AO2 PK WND 28057/0513 WSHFT 0506 LTG DSNT ALQDS RAB14 TSB05 FRQ LTGICCG NE-S TS NE-S MOV E P0009 T01220100 $
An unhandled exception has occurred. See browser dev tools for details. Reload 🗙